Time,TemperatureF,DewpointF,PressureIn,WindDirection,WindDirectionDegrees,WindSpeedMPH,WindSpeedGustMPH,Humidity,HourlyPrecipIn,Conditions,Clouds,dailyrainin,SolarRadiationWatts/m^2,SoftwareType,DateUTC
2013-02-11 00:02:00,48.0,47.0,-100.00,ESE,104,0.0,2.0,98,0.00,,,0.57,0.000000,,2013-02-11 05:02:00,
2013-02-11 00:32:00,49.0,48.0,-100.00,SE,133,0.0,3.0,98,0.00,,,0.57,0.000000,,2013-02-11 05:32:00,
2013-02-11 00:42:00,49.0,48.0,-100.00,SE,133,0.0,3.0,98,0.00,,,0.57,0.000000,,2013-02-11 05:42:00,
2013-02-11 00:53:00,49.0,48.0,-100.00,SE,133,0.0,3.0,98,0.00,,,0.57,0.000000,,2013-02-11 05:53:00,
2013-02-11 01:02:00,49.0,48.0,-100.00,SE,133,0.0,3.0,98,0.00,,,0.57,0.000000,,2013-02-11 06:02:00,
2013-02-11 01:32:00,49.0,48.0,-100.00,WSW,245,0.0,3.0,98,0.00,,,0.57,0.000000,,2013-02-11 06:32:00,
2013-02-11 01:42:00,49.0,48.0,-100.00,WSW,245,0.0,3.0,98,0.00,,,0.57,0.000000,,2013-02-11 06:42:00,
2013-02-11 01:52:00,49.0,48.0,-100.00,WSW,245,0.0,3.0,98,0.00,,,0.57,0.000000,,2013-02-11 06:52:00,
2013-02-11 02:02:00,49.0,48.0,-100.00,WSW,245,0.0,3.0,98,0.00,,,0.57,0.000000,,2013-02-11 07:02:00,
2013-02-11 02:32:00,49.0,48.0,-100.00,SSE,165,2.0,3.0,98,0.00,,,0.57,0.000000,,2013-02-11 07:32:00,
2013-02-11 02:42:00,49.0,48.0,-100.00,SSE,165,2.0,3.0,98,0.00,,,0.57,0.000000,,2013-02-11 07:42:00,
2013-02-11 02:52:00,49.0,48.0,-100.00,SSE,165,2.0,3.0,98,0.00,,,0.57,0.000000,,2013-02-11 07:52:00,
2013-02-11 03:01:00,49.0,48.0,-100.00,SSE,165,2.0,3.0,98,0.00,,,0.57,0.000000,,2013-02-11 08:01:00,
2013-02-11 03:32:00,52.0,51.0,-100.00,SW,214,7.0,11.0,98,0.00,,,0.57,0.000000,,2013-02-11 08:32:00,
2013-02-11 03:42:00,52.0,51.0,-100.00,SW,214,7.0,11.0,98,0.00,,,0.57,0.000000,,2013-02-11 08:42:00,
2013-02-11 03:52:00,52.0,51.0,-100.00,SW,214,7.0,11.0,98,0.00,,,0.57,0.000000,,2013-02-11 08:52:00,
2013-02-11 04:02:00,52.0,51.0,-100.00,SW,214,7.0,11.0,98,0.00,,,0.57,0.000000,,2013-02-11 09:02:00,
2013-02-11 04:32:00,53.0,51.0,-100.00,SSW,207,6.0,12.0,94,0.00,,,0.57,0.000000,,2013-02-11 09:32:00,
2013-02-11 04:42:00,53.0,51.0,-100.00,SSW,207,6.0,12.0,94,0.00,,,0.57,0.000000,,2013-02-11 09:42:00,
2013-02-11 04:52:00,53.0,51.0,-100.00,SSW,207,6.0,12.0,94,0.00,,,0.57,0.000000,,2013-02-11 09:52:00,
2013-02-11 05:02:00,53.0,51.0,-100.00,SSW,207,6.0,12.0,94,0.00,,,0.57,0.000000,,2013-02-11 10:02:00,
2013-02-11 05:32:00,53.0,51.0,-100.00,SSW,209,4.0,10.0,94,0.00,,,0.57,0.000000,,2013-02-11 10:32:00,
2013-02-11 05:42:00,53.0,51.0,-100.00,SSW,209,4.0,10.0,94,0.00,,,0.57,0.000000,,2013-02-11 10:42:00,
2013-02-11 05:52:00,53.0,51.0,-100.00,SSW,209,4.0,10.0,94,0.00,,,0.57,0.000000,,2013-02-11 10:52:00,
2013-02-11 06:02:00,53.0,51.0,-100.00,SSW,209,4.0,10.0,94,0.00,,,0.57,0.000000,,2013-02-11 11:02:00,
2013-02-11 06:32:00,53.0,51.0,-100.00,SW,226,5.0,11.0,92,0.00,,,0.57,0.000000,,2013-02-11 11:32:00,
2013-02-11 06:42:00,53.0,51.0,-100.00,SW,226,5.0,11.0,92,0.00,,,0.57,0.000000,,2013-02-11 11:42:00,
2013-02-11 06:52:00,53.0,51.0,-100.00,SW,226,5.0,11.0,92,0.00,,,0.57,0.000000,,2013-02-11 11:52:00,
2013-02-11 07:03:00,53.0,51.0,-100.00,SW,226,5.0,11.0,92,0.00,,,0.57,0.000000,,2013-02-11 12:03:00,
2013-02-11 07:32:00,52.0,50.0,-100.00,SSW,208,6.0,9.0,93,0.00,,,-99.99,0.000000,,2013-02-11 12:32:00,
2013-02-11 07:42:00,52.0,50.0,-100.00,SSW,208,6.0,9.0,93,0.00,,,-99.99,0.000000,,2013-02-11 12:42:00,
2013-02-11 07:52:00,52.0,50.0,-100.00,SSW,208,6.0,9.0,93,0.00,,,-99.99,0.000000,,2013-02-11 12:52:00,
2013-02-11 08:02:00,52.0,50.0,-100.00,SSW,208,6.0,9.0,93,0.00,,,-99.99,0.000000,,2013-02-11 13:02:00,
2013-02-11 08:33:00,53.0,51.0,-100.00,SSW,210,7.0,11.0,93,0.00,,,-99.99,5.000000,,2013-02-11 13:33:00,
2013-02-11 08:42:00,53.0,51.0,-100.00,SSW,210,7.0,11.0,93,0.00,,,-99.99,5.000000,,2013-02-11 13:42:00,
2013-02-11 08:52:00,53.0,51.0,-100.00,SSW,210,7.0,11.0,93,0.00,,,-99.99,5.000000,,2013-02-11 13:52:00,
2013-02-11 09:02:00,53.0,51.0,-100.00,SSW,210,7.0,11.0,93,0.00,,,-99.99,5.000000,,2013-02-11 14:02:00,
2013-02-11 09:33:00,54.0,52.0,-100.00,SSW,205,4.0,14.0,94,0.00,,,-99.99,20.000000,,2013-02-11 14:33:00,
2013-02-11 09:42:00,54.0,52.0,-100.00,SSW,205,4.0,14.0,94,0.00,,,-99.99,20.000000,,2013-02-11 14:42:00,
2013-02-11 09:53:00,54.0,52.0,-100.00,SSW,205,4.0,14.0,94,0.00,,,-99.99,20.000000,,2013-02-11 14:53:00,
2013-02-11 10:02:00,54.0,52.0,-100.00,SSW,205,4.0,14.0,94,0.00,,,-99.99,20.000000,,2013-02-11 15:02:00,
2013-02-11 10:32:00,55.0,53.0,-100.00,SW,215,8.0,13.0,92,0.00,,,0.57,92.000000,,2013-02-11 15:32:00,
2013-02-11 10:42:00,55.0,53.0,-100.00,SW,215,8.0,13.0,92,0.00,,,0.57,92.000000,,2013-02-11 15:42:00,
2013-02-11 10:52:00,55.0,53.0,-100.00,SW,215,8.0,13.0,92,0.00,,,0.57,92.000000,,2013-02-11 15:52:00,
2013-02-11 11:02:00,55.0,53.0,-100.00,SW,215,8.0,13.0,92,0.00,,,0.57,92.000000,,2013-02-11 16:02:00,
2013-02-11 11:32:00,56.0,53.0,-100.00,SW,214,8.0,12.0,91,0.00,,,0.57,113.000000,,2013-02-11 16:32:00,
2013-02-11 11:42:00,56.0,53.0,-100.00,SW,214,8.0,12.0,91,0.00,,,0.57,113.000000,,2013-02-11 16:42:00,
2013-02-11 11:53:00,56.0,53.0,-100.00,SW,214,8.0,12.0,91,0.00,,,0.57,113.000000,,2013-02-11 16:53:00,
2013-02-11 12:02:00,56.0,53.0,-100.00,SW,214,8.0,12.0,91,0.00,,,0.57,113.000000,,2013-02-11 17:02:00,
2013-02-11 12:32:00,57.0,53.0,-100.00,SSW,201,5.0,9.0,88,0.00,,,0.57,138.000000,,2013-02-11 17:32:00,
2013-02-11 12:42:00,57.0,53.0,-100.00,SSW,201,5.0,9.0,88,0.00,,,0.57,138.000000,,2013-02-11 17:42:00,
2013-02-11 12:53:00,57.0,53.0,-100.00,SSW,201,5.0,9.0,88,0.00,,,0.57,138.000000,,2013-02-11 17:53:00,
2013-02-11 13:02:00,57.0,53.0,-100.00,SSW,201,5.0,9.0,88,0.00,,,0.57,138.000000,,2013-02-11 18:02:00,
2013-02-11 13:32:00,58.0,46.0,-100.00,SW,236,4.0,10.0,65,0.00,,,0.57,139.000000,,2013-02-11 18:32:00,
2013-02-11 13:42:00,58.0,46.0,-100.00,SW,236,4.0,10.0,65,0.00,,,0.57,139.000000,,2013-02-11 18:42:00,
2013-02-11 13:54:00,58.0,46.0,-100.00,SW,236,4.0,10.0,65,0.00,,,0.57,139.000000,,2013-02-11 18:54:00,
2013-02-11 14:02:00,58.0,46.0,-100.00,SW,236,4.0,10.0,65,0.00,,,0.57,139.000000,,2013-02-11 19:02:00,
2013-02-11 15:32:00,58.0,36.0,-100.00,SW,232,5.0,11.0,44,-99.99,,,0.57,164.000000,,2013-02-11 20:32:00,
2013-02-11 15:42:00,58.0,36.0,-100.00,SW,232,5.0,11.0,44,-99.99,,,0.57,164.000000,,2013-02-11 20:42:00,
2013-02-11 15:52:00,58.0,36.0,-100.00,SW,232,5.0,11.0,44,-99.99,,,0.57,164.000000,,2013-02-11 20:52:00,
2013-02-11 16:02:00,58.0,36.0,-100.00,SW,232,5.0,11.0,44,-99.99,,,0.57,164.000000,,2013-02-11 21:02:00,
2013-02-11 16:32:00,57.0,34.0,-100.00,West,277,3.0,9.0,41,0.00,,,0.52,132.000000,,2013-02-11 21:32:00,
2013-02-11 16:42:00,57.0,34.0,-100.00,West,277,3.0,9.0,41,0.00,,,0.52,132.000000,,2013-02-11 21:42:00,
2013-02-11 16:52:00,57.0,34.0,-100.00,West,277,3.0,9.0,41,0.00,,,0.52,132.000000,,2013-02-11 21:52:00,
2013-02-11 17:02:00,57.0,34.0,-100.00,West,277,3.0,9.0,41,0.00,,,0.52,132.000000,,2013-02-11 22:02:00,
2013-02-11 17:32:00,56.0,33.0,-100.00,WSW,244,0.0,9.0,42,0.00,,,0.24,111.000000,,2013-02-11 22:32:00,
2013-02-11 17:42:00,56.0,33.0,-100.00,WSW,244,0.0,9.0,42,0.00,,,0.24,111.000000,,2013-02-11 22:42:00,
2013-02-11 17:52:00,56.0,33.0,-100.00,WSW,244,0.0,9.0,42,0.00,,,0.24,111.000000,,2013-02-11 22:52:00,
2013-02-11 18:02:00,56.0,33.0,-100.00,WSW,244,0.0,9.0,42,0.00,,,0.24,111.000000,,2013-02-11 23:02:00,
2013-02-11 18:32:00,53.0,34.0,-100.00,SW,233,0.0,6.0,49,0.00,,,0.05,50.000000,,2013-02-11 23:32:00,
2013-02-11 18:42:00,53.0,34.0,-100.00,SW,233,0.0,6.0,49,0.00,,,0.05,50.000000,,2013-02-11 23:42:00,
2013-02-11 18:52:00,53.0,34.0,-100.00,SW,233,0.0,6.0,49,0.00,,,0.05,50.000000,,2013-02-11 23:52:00,
2013-02-11 19:02:00,53.0,34.0,-100.00,SW,233,0.0,6.0,49,0.00,,,0.05,50.000000,,2013-02-12 00:02:00,
2013-02-11 19:32:00,47.0,37.0,-100.00,North,11,0.0,2.0,67,0.00,,,0.01,2.000000,,2013-02-12 00:32:00,
2013-02-11 19:42:00,47.0,37.0,-100.00,North,11,0.0,2.0,67,0.00,,,0.01,2.000000,,2013-02-12 00:42:00,
2013-02-11 19:52:00,47.0,37.0,-100.00,North,11,0.0,2.0,67,0.00,,,0.01,2.000000,,2013-02-12 00:52:00,
2013-02-11 20:02:00,47.0,37.0,-100.00,North,11,0.0,2.0,67,0.00,,,0.01,2.000000,,2013-02-12 01:02:00,
2013-02-11 20:32:00,42.0,39.0,-100.00,SSE,164,0.0,0.0,88,0.00,,,-99.99,0.000000,,2013-02-12 01:32:00,
2013-02-11 20:42:00,42.0,39.0,-100.00,SSE,164,0.0,0.0,88,0.00,,,-99.99,0.000000,,2013-02-12 01:42:00,
2013-02-11 20:52:00,42.0,39.0,-100.00,SSE,164,0.0,0.0,88,0.00,,,-99.99,0.000000,,2013-02-12 01:52:00,
2013-02-11 21:02:00,42.0,39.0,-100.00,SSE,164,0.0,0.0,88,0.00,,,-99.99,0.000000,,2013-02-12 02:02:00,
2013-02-11 21:32:00,40.0,37.0,-100.00,SSE,155,0.0,0.0,90,0.00,,,0.00,0.000000,,2013-02-12 02:32:00,
2013-02-11 21:42:00,40.0,37.0,-100.00,SSE,155,0.0,0.0,90,0.00,,,0.00,0.000000,,2013-02-12 02:42:00,
2013-02-11 21:53:00,40.0,37.0,-100.00,SSE,155,0.0,0.0,90,0.00,,,0.00,0.000000,,2013-02-12 02:53:00,
2013-02-11 22:02:00,40.0,37.0,-100.00,SSE,155,0.0,0.0,90,0.00,,,0.00,0.000000,,2013-02-12 03:02:00,
2013-02-11 22:32:00,39.0,37.0,-100.00,SSE,148,0.0,0.0,92,0.00,,,0.00,0.000000,,2013-02-12 03:32:00,
2013-02-11 22:42:00,39.0,37.0,-100.00,SSE,148,0.0,0.0,92,0.00,,,0.00,0.000000,,2013-02-12 03:42:00,
2013-02-11 22:52:00,39.0,37.0,-100.00,SSE,148,0.0,0.0,92,0.00,,,0.00,0.000000,,2013-02-12 03:52:00,
2013-02-11 23:01:00,39.0,37.0,-100.00,SSE,148,0.0,0.0,92,0.00,,,0.00,0.000000,,2013-02-12 04:01:00,
2013-02-11 23:32:00,39.0,37.0,-100.00,SE,133,0.0,2.0,92,0.00,,,0.00,0.000000,,2013-02-12 04:32:00,
2013-02-11 23:42:00,39.0,37.0,-100.00,SE,133,0.0,2.0,92,0.00,,,0.00,0.000000,,2013-02-12 04:42:00,
2013-02-11 23:52:00,39.0,37.0,-100.00,SE,133,0.0,2.0,92,0.00,,,0.00,0.000000,,2013-02-12 04:52:00,